sensor_id;sensor_type;location;lat;lon;timestamp;temperature;humidity
51500;DHT22;39101;53.478;6.158;2023-06-19T00:00:35;20.30;99.90
51500;DHT22;39101;53.478;6.158;2023-06-19T00:03:02;20.30;99.90
51500;DHT22;39101;53.478;6.158;2023-06-19T00:08:21;20.40;99.90
51500;DHT22;39101;53.478;6.158;2023-06-19T00:10:48;20.30;99.90
51500;DHT22;39101;53.478;6.158;2023-06-19T00:13:13;20.30;99.90
51500;DHT22;39101;53.478;6.158;2023-06-19T00:15:40;20.30;99.90
51500;DHT22;39101;53.478;6.158;2023-06-19T00:18:05;20.30;99.90
51500;DHT22;39101;53.478;6.158;2023-06-19T00:20:32;20.30;99.90
51500;DHT22;39101;53.478;6.158;2023-06-19T00:23:00;20.30;99.90
51500;DHT22;39101;53.478;6.158;2023-06-19T00:25:26;20.40;99.90
51500;DHT22;39101;53.478;6.158;2023-06-19T00:27:53;20.40;99.90
51500;DHT22;39101;53.478;6.158;2023-06-19T00:30:19;20.40;99.90
51500;DHT22;39101;53.478;6.158;2023-06-19T00:32:45;20.40;99.90
51500;DHT22;39101;53.478;6.158;2023-06-19T00:35:17;20.40;99.90
51500;DHT22;39101;53.478;6.158;2023-06-19T00:37:48;20.40;99.90
51500;DHT22;39101;53.478;6.158;2023-06-19T00:40:29;20.30;99.90
51500;DHT22;39101;53.478;6.158;2023-06-19T00:42:56;20.40;99.90
51500;DHT22;39101;53.478;6.158;2023-06-19T00:45:22;20.30;99.90
51500;DHT22;39101;53.478;6.158;2023-06-19T00:47:50;20.40;99.90
51500;DHT22;39101;53.478;6.158;2023-06-19T00:50:16;20.40;99.90
51500;DHT22;39101;53.478;6.158;2023-06-19T00:52:43;20.40;99.90
51500;DHT22;39101;53.478;6.158;2023-06-19T00:55:08;20.30;99.90
51500;DHT22;39101;53.478;6.158;2023-06-19T00:57:35;20.40;99.90
51500;DHT22;39101;53.478;6.158;2023-06-19T01:00:09;20.40;99.90
51500;DHT22;39101;53.478;6.158;2023-06-19T01:02:40;20.40;99.90
51500;DHT22;39101;53.478;6.158;2023-06-19T01:05:07;20.40;99.90
51500;DHT22;39101;53.478;6.158;2023-06-19T01:10:10;20.40;99.90
51500;DHT22;39101;53.478;6.158;2023-06-19T01:12:44;20.40;99.90
51500;DHT22;39101;53.478;6.158;2023-06-19T01:15:16;20.40;99.90
51500;DHT22;39101;53.478;6.158;2023-06-19T01:17:44;20.30;99.90
51500;DHT22;39101;53.478;6.158;2023-06-19T01:20:10;20.40;99.90
51500;DHT22;39101;53.478;6.158;2023-06-19T01:22:45;20.40;99.90
51500;DHT22;39101;53.478;6.158;2023-06-19T01:25:11;20.40;99.90
51500;DHT22;39101;53.478;6.158;2023-06-19T01:27:41;20.40;99.90
51500;DHT22;39101;53.478;6.158;2023-06-19T01:30:12;20.40;99.90
51500;DHT22;39101;53.478;6.158;2023-06-19T01:33:28;20.50;99.90
51500;DHT22;39101;53.478;6.158;2023-06-19T01:35:36;20.50;99.90
51500;DHT22;39101;53.478;6.158;2023-06-19T01:38:29;20.40;99.90
51500;DHT22;39101;53.478;6.158;2023-06-19T01:40:58;20.40;99.90
51500;DHT22;39101;53.478;6.158;2023-06-19T01:43:26;20.30;99.90
51500;DHT22;39101;53.478;6.158;2023-06-19T01:45:52;20.40;99.90
51500;DHT22;39101;53.478;6.158;2023-06-19T01:48:18;20.40;99.90
51500;DHT22;39101;53.478;6.158;2023-06-19T01:50:48;20.50;99.90
51500;DHT22;39101;53.478;6.158;2023-06-19T01:53:14;20.40;99.90
51500;DHT22;39101;53.478;6.158;2023-06-19T01:55:41;20.50;99.90
51500;DHT22;39101;53.478;6.158;2023-06-19T01:58:07;20.40;99.90
51500;DHT22;39101;53.478;6.158;2023-06-19T02:00:32;20.40;99.90
51500;DHT22;39101;53.478;6.158;2023-06-19T02:03:01;20.40;99.90
51500;DHT22;39101;53.478;6.158;2023-06-19T02:05:27;20.50;99.90
51500;DHT22;39101;53.478;6.158;2023-06-19T02:07:53;20.40;99.90
51500;DHT22;39101;53.478;6.158;2023-06-19T02:10:18;20.50;99.90
51500;DHT22;39101;53.478;6.158;2023-06-19T02:12:56;20.30;99.90
51500;DHT22;39101;53.478;6.158;2023-06-19T02:15:22;20.40;99.90
51500;DHT22;39101;53.478;6.158;2023-06-19T02:17:48;20.30;99.90
51500;DHT22;39101;53.478;6.158;2023-06-19T02:20:14;20.40;99.90
51500;DHT22;39101;53.478;6.158;2023-06-19T02:22:40;20.40;99.90
51500;DHT22;39101;53.478;6.158;2023-06-19T02:25:07;20.40;99.90
51500;DHT22;39101;53.478;6.158;2023-06-19T02:27:32;20.30;99.90
51500;DHT22;39101;53.478;6.158;2023-06-19T02:29:58;20.40;99.90
51500;DHT22;39101;53.478;6.158;2023-06-19T02:32:24;20.40;99.90
51500;DHT22;39101;53.478;6.158;2023-06-19T02:34:52;20.30;99.90
51500;DHT22;39101;53.478;6.158;2023-06-19T02:37:18;20.30;99.90
51500;DHT22;39101;53.478;6.158;2023-06-19T02:39:43;20.40;99.90
51500;DHT22;39101;53.478;6.158;2023-06-19T02:42:09;20.30;99.90
51500;DHT22;39101;53.478;6.158;2023-06-19T02:44:35;20.30;99.90
51500;DHT22;39101;53.478;6.158;2023-06-19T02:47:00;20.40;99.90
51500;DHT22;39101;53.478;6.158;2023-06-19T02:49:26;20.30;99.90
51500;DHT22;39101;53.478;6.158;2023-06-19T02:51:52;20.40;99.90
51500;DHT22;39101;53.478;6.158;2023-06-19T02:54:17;20.40;99.90
51500;DHT22;39101;53.478;6.158;2023-06-19T02:56:45;20.40;99.90
51500;DHT22;39101;53.478;6.158;2023-06-19T02:59:12;20.40;99.90
51500;DHT22;39101;53.478;6.158;2023-06-19T03:01:37;20.30;99.90
51500;DHT22;39101;53.478;6.158;2023-06-19T03:04:03;20.30;99.90
51500;DHT22;39101;53.478;6.158;2023-06-19T03:06:29;20.30;99.90
51500;DHT22;39101;53.478;6.158;2023-06-19T03:08:56;20.40;99.90
51500;DHT22;39101;53.478;6.158;2023-06-19T03:11:22;20.30;99.90
51500;DHT22;39101;53.478;6.158;2023-06-19T03:13:51;20.30;99.90
51500;DHT22;39101;53.478;6.158;2023-06-19T03:16:18;20.30;99.90
51500;DHT22;39101;53.478;6.158;2023-06-19T03:18:47;20.20;99.90
51500;DHT22;39101;53.478;6.158;2023-06-19T03:21:23;20.10;99.90
51500;DHT22;39101;53.478;6.158;2023-06-19T03:23:49;20.30;99.90
51500;DHT22;39101;53.478;6.158;2023-06-19T03:26:15;20.30;99.90
51500;DHT22;39101;53.478;6.158;2023-06-19T03:28:40;20.30;99.90
51500;DHT22;39101;53.478;6.158;2023-06-19T03:31:06;20.40;99.90
51500;DHT22;39101;53.478;6.158;2023-06-19T03:33:33;20.30;99.90
51500;DHT22;39101;53.478;6.158;2023-06-19T03:35:59;20.30;99.90
51500;DHT22;39101;53.478;6.158;2023-06-19T03:38:24;20.30;99.90
51500;DHT22;39101;53.478;6.158;2023-06-19T03:40:50;20.30;99.90
51500;DHT22;39101;53.478;6.158;2023-06-19T03:43:16;19.90;99.90
51500;DHT22;39101;53.478;6.158;2023-06-19T03:45:41;20.10;99.90
51500;DHT22;39101;53.478;6.158;2023-06-19T03:48:07;20.10;99.90
51500;DHT22;39101;53.478;6.158;2023-06-19T03:50:33;20.10;99.90
51500;DHT22;39101;53.478;6.158;2023-06-19T03:52:58;20.00;99.90
51500;DHT22;39101;53.478;6.158;2023-06-19T03:55:24;20.00;99.90
51500;DHT22;39101;53.478;6.158;2023-06-19T03:57:50;20.00;99.90
51500;DHT22;39101;53.478;6.158;2023-06-19T04:00:16;20.00;99.90
51500;DHT22;39101;53.478;6.158;2023-06-19T04:02:44;20.00;99.90
51500;DHT22;39101;53.478;6.158;2023-06-19T04:05:14;20.00;99.90
51500;DHT22;39101;53.478;6.158;2023-06-19T04:07:43;20.00;99.90
51500;DHT22;39101;53.478;6.158;2023-06-19T04:10:09;20.00;99.90
51500;DHT22;39101;53.478;6.158;2023-06-19T04:12:37;20.10;99.90
51500;DHT22;39101;53.478;6.158;2023-06-19T04:15:03;20.10;99.90
51500;DHT22;39101;53.478;6.158;2023-06-19T04:17:29;20.10;99.90
51500;DHT22;39101;53.478;6.158;2023-06-19T04:19:54;20.10;99.90
51500;DHT22;39101;53.478;6.158;2023-06-19T04:22:22;20.10;99.90
51500;DHT22;39101;53.478;6.158;2023-06-19T04:24:47;20.10;99.90
51500;DHT22;39101;53.478;6.158;2023-06-19T04:27:13;20.10;99.90
51500;DHT22;39101;53.478;6.158;2023-06-19T04:32:05;20.20;99.90
51500;DHT22;39101;53.478;6.158;2023-06-19T04:34:42;20.10;99.90
51500;DHT22;39101;53.478;6.158;2023-06-19T04:37:11;20.10;99.90
51500;DHT22;39101;53.478;6.158;2023-06-19T04:39:39;20.00;99.90
51500;DHT22;39101;53.478;6.158;2023-06-19T04:42:06;20.00;99.90
51500;DHT22;39101;53.478;6.158;2023-06-19T04:44:32;20.00;99.90
51500;DHT22;39101;53.478;6.158;2023-06-19T04:47:00;19.90;99.90
51500;DHT22;39101;53.478;6.158;2023-06-19T04:49:29;19.90;99.90
51500;DHT22;39101;53.478;6.158;2023-06-19T04:51:58;19.90;99.90
51500;DHT22;39101;53.478;6.158;2023-06-19T04:54:25;19.90;99.90
51500;DHT22;39101;53.478;6.158;2023-06-19T04:56:52;19.90;99.90
51500;DHT22;39101;53.478;6.158;2023-06-19T04:59:18;19.90;99.90
51500;DHT22;39101;53.478;6.158;2023-06-19T05:01:44;20.00;99.90
51500;DHT22;39101;53.478;6.158;2023-06-19T05:04:10;20.00;99.90
51500;DHT22;39101;53.478;6.158;2023-06-19T05:06:39;20.10;99.90
51500;DHT22;39101;53.478;6.158;2023-06-19T05:09:12;20.20;99.90
51500;DHT22;39101;53.478;6.158;2023-06-19T05:11:38;20.20;99.90
51500;DHT22;39101;53.478;6.158;2023-06-19T05:14:04;20.20;99.90
51500;DHT22;39101;53.478;6.158;2023-06-19T05:16:29;20.20;99.90
51500;DHT22;39101;53.478;6.158;2023-06-19T05:18:56;20.10;99.90
51500;DHT22;39101;53.478;6.158;2023-06-19T05:21:22;20.10;99.90
51500;DHT22;39101;53.478;6.158;2023-06-19T05:23:48;20.00;99.90
51500;DHT22;39101;53.478;6.158;2023-06-19T05:26:19;20.10;99.90
51500;DHT22;39101;53.478;6.158;2023-06-19T05:28:46;20.10;99.90
51500;DHT22;39101;53.478;6.158;2023-06-19T05:31:13;20.10;99.90
51500;DHT22;39101;53.478;6.158;2023-06-19T05:33:39;20.10;99.90
51500;DHT22;39101;53.478;6.158;2023-06-19T05:36:08;20.20;99.90
51500;DHT22;39101;53.478;6.158;2023-06-19T05:38:34;20.10;99.90
51500;DHT22;39101;53.478;6.158;2023-06-19T05:40:59;20.20;99.90
51500;DHT22;39101;53.478;6.158;2023-06-19T05:43:26;20.20;99.90
51500;DHT22;39101;53.478;6.158;2023-06-19T05:45:53;20.20;99.90
51500;DHT22;39101;53.478;6.158;2023-06-19T05:48:19;20.20;99.90
51500;DHT22;39101;53.478;6.158;2023-06-19T05:50:45;20.30;99.90
51500;DHT22;39101;53.478;6.158;2023-06-19T05:53:10;20.20;99.90
51500;DHT22;39101;53.478;6.158;2023-06-19T05:55:36;20.30;99.90
51500;DHT22;39101;53.478;6.158;2023-06-19T05:58:03;20.20;99.90
51500;DHT22;39101;53.478;6.158;2023-06-19T06:00:30;20.20;99.90
51500;DHT22;39101;53.478;6.158;2023-06-19T06:02:56;20.20;99.90
51500;DHT22;39101;53.478;6.158;2023-06-19T06:05:25;20.20;99.90
51500;DHT22;39101;53.478;6.158;2023-06-19T06:07:52;20.20;99.90
51500;DHT22;39101;53.478;6.158;2023-06-19T06:10:20;20.20;99.90
51500;DHT22;39101;53.478;6.158;2023-06-19T06:12:45;20.10;99.90
51500;DHT22;39101;53.478;6.158;2023-06-19T06:15:11;20.10;99.90
51500;DHT22;39101;53.478;6.158;2023-06-19T06:17:37;20.20;99.90
51500;DHT22;39101;53.478;6.158;2023-06-19T06:20:28;20.30;99.90
51500;DHT22;39101;53.478;6.158;2023-06-19T06:22:53;20.30;99.90
51500;DHT22;39101;53.478;6.158;2023-06-19T06:25:19;20.20;99.90
51500;DHT22;39101;53.478;6.158;2023-06-19T06:27:48;20.30;99.90
51500;DHT22;39101;53.478;6.158;2023-06-19T06:30:14;20.30;99.90
51500;DHT22;39101;53.478;6.158;2023-06-19T06:32:39;20.30;99.90
51500;DHT22;39101;53.478;6.158;2023-06-19T06:35:06;20.30;99.90
51500;DHT22;39101;53.478;6.158;2023-06-19T06:37:35;20.30;99.90
51500;DHT22;39101;53.478;6.158;2023-06-19T06:40:00;20.40;99.90
51500;DHT22;39101;53.478;6.158;2023-06-19T06:42:26;20.40;99.90
51500;DHT22;39101;53.478;6.158;2023-06-19T06:44:52;20.30;99.90
51500;DHT22;39101;53.478;6.158;2023-06-19T06:47:19;20.30;99.90
51500;DHT22;39101;53.478;6.158;2023-06-19T06:49:45;20.50;99.90
51500;DHT22;39101;53.478;6.158;2023-06-19T06:52:10;20.60;99.90
51500;DHT22;39101;53.478;6.158;2023-06-19T06:54:37;20.60;99.90
51500;DHT22;39101;53.478;6.158;2023-06-19T06:57:03;20.70;99.90
51500;DHT22;39101;53.478;6.158;2023-06-19T06:59:31;20.70;99.90
51500;DHT22;39101;53.478;6.158;2023-06-19T07:01:56;20.80;99.90
51500;DHT22;39101;53.478;6.158;2023-06-19T07:07:30;20.80;99.90
51500;DHT22;39101;53.478;6.158;2023-06-19T07:09:55;20.70;99.90
51500;DHT22;39101;53.478;6.158;2023-06-19T07:12:21;20.60;99.90
51500;DHT22;39101;53.478;6.158;2023-06-19T07:14:47;20.60;99.90
51500;DHT22;39101;53.478;6.158;2023-06-19T07:17:12;20.70;99.90
51500;DHT22;39101;53.478;6.158;2023-06-19T07:19:38;20.60;99.90
51500;DHT22;39101;53.478;6.158;2023-06-19T07:22:04;20.50;99.90
51500;DHT22;39101;53.478;6.158;2023-06-19T07:24:30;20.70;99.90
51500;DHT22;39101;53.478;6.158;2023-06-19T07:26:58;20.60;99.90
51500;DHT22;39101;53.478;6.158;2023-06-19T07:29:24;20.50;99.90
51500;DHT22;39101;53.478;6.158;2023-06-19T07:31:51;20.50;99.90
51500;DHT22;39101;53.478;6.158;2023-06-19T07:34:19;20.50;99.90
51500;DHT22;39101;53.478;6.158;2023-06-19T07:36:45;20.50;99.90
51500;DHT22;39101;53.478;6.158;2023-06-19T07:39:11;20.50;99.90
51500;DHT22;39101;53.478;6.158;2023-06-19T07:41:36;20.30;99.90
51500;DHT22;39101;53.478;6.158;2023-06-19T07:44:03;20.20;99.90
51500;DHT22;39101;53.478;6.158;2023-06-19T07:46:29;20.20;99.90
51500;DHT22;39101;53.478;6.158;2023-06-19T07:48:56;20.10;99.90
51500;DHT22;39101;53.478;6.158;2023-06-19T07:51:22;20.00;99.90
51500;DHT22;39101;53.478;6.158;2023-06-19T07:53:48;19.80;99.90
51500;DHT22;39101;53.478;6.158;2023-06-19T07:56:14;19.80;99.90
51500;DHT22;39101;53.478;6.158;2023-06-19T07:58:41;19.80;99.90
51500;DHT22;39101;53.478;6.158;2023-06-19T08:01:08;19.70;99.90
51500;DHT22;39101;53.478;6.158;2023-06-19T08:03:37;19.70;99.90
51500;DHT22;39101;53.478;6.158;2023-06-19T08:06:04;19.50;99.90
51500;DHT22;39101;53.478;6.158;2023-06-19T08:08:30;19.40;99.90
51500;DHT22;39101;53.478;6.158;2023-06-19T08:10:56;19.40;99.90
51500;DHT22;39101;53.478;6.158;2023-06-19T08:13:23;19.30;99.90
51500;DHT22;39101;53.478;6.158;2023-06-19T08:15:49;19.40;99.90
51500;DHT22;39101;53.478;6.158;2023-06-19T08:18:14;19.40;99.90
51500;DHT22;39101;53.478;6.158;2023-06-19T08:20:40;19.30;99.90
51500;DHT22;39101;53.478;6.158;2023-06-19T08:23:06;19.20;99.90
51500;DHT22;39101;53.478;6.158;2023-06-19T08:25:31;19.30;99.90
51500;DHT22;39101;53.478;6.158;2023-06-19T08:27:57;19.30;99.90
51500;DHT22;39101;53.478;6.158;2023-06-19T08:30:22;19.10;99.90
51500;DHT22;39101;53.478;6.158;2023-06-19T08:35:58;19.10;99.90
51500;DHT22;39101;53.478;6.158;2023-06-19T08:38:23;19.10;99.90
51500;DHT22;39101;53.478;6.158;2023-06-19T08:40:49;19.00;99.90
51500;DHT22;39101;53.478;6.158;2023-06-19T08:43:15;18.90;99.90
51500;DHT22;39101;53.478;6.158;2023-06-19T08:45:41;18.90;99.90
51500;DHT22;39101;53.478;6.158;2023-06-19T08:48:07;18.80;99.90
51500;DHT22;39101;53.478;6.158;2023-06-19T08:50:34;18.90;99.90
51500;DHT22;39101;53.478;6.158;2023-06-19T08:52:59;18.90;99.90
51500;DHT22;39101;53.478;6.158;2023-06-19T08:55:25;18.90;99.90
51500;DHT22;39101;53.478;6.158;2023-06-19T08:57:51;19.00;99.90
51500;DHT22;39101;53.478;6.158;2023-06-19T09:00:26;19.00;99.90
51500;DHT22;39101;53.478;6.158;2023-06-19T09:03:01;18.90;99.90
51500;DHT22;39101;53.478;6.158;2023-06-19T09:05:29;18.90;99.90
51500;DHT22;39101;53.478;6.158;2023-06-19T09:08:00;18.90;99.90
51500;DHT22;39101;53.478;6.158;2023-06-19T09:10:26;19.00;99.90
51500;DHT22;39101;53.478;6.158;2023-06-19T09:15:28;18.80;99.90
51500;DHT22;39101;53.478;6.158;2023-06-19T09:18:10;18.80;99.90
51500;DHT22;39101;53.478;6.158;2023-06-19T09:20:43;18.90;99.90
51500;DHT22;39101;53.478;6.158;2023-06-19T09:23:13;18.90;99.90
51500;DHT22;39101;53.478;6.158;2023-06-19T09:25:49;18.90;99.90
51500;DHT22;39101;53.478;6.158;2023-06-19T09:28:24;18.80;99.90
51500;DHT22;39101;53.478;6.158;2023-06-19T09:30:55;18.80;99.90
51500;DHT22;39101;53.478;6.158;2023-06-19T09:33:25;18.80;99.90
51500;DHT22;39101;53.478;6.158;2023-06-19T09:35:55;18.70;99.90
51500;DHT22;39101;53.478;6.158;2023-06-19T09:38:23;18.80;99.90
51500;DHT22;39101;53.478;6.158;2023-06-19T09:40:53;18.70;99.90
51500;DHT22;39101;53.478;6.158;2023-06-19T09:43:24;18.70;99.90
51500;DHT22;39101;53.478;6.158;2023-06-19T09:45:55;18.60;99.90
51500;DHT22;39101;53.478;6.158;2023-06-19T09:48:27;18.60;99.90
51500;DHT22;39101;53.478;6.158;2023-06-19T09:50:59;18.40;99.90
51500;DHT22;39101;53.478;6.158;2023-06-19T09:53:25;18.50;99.90
51500;DHT22;39101;53.478;6.158;2023-06-19T09:55:54;18.40;99.90
51500;DHT22;39101;53.478;6.158;2023-06-19T09:58:23;18.50;99.90
51500;DHT22;39101;53.478;6.158;2023-06-19T10:00:50;18.40;99.90
51500;DHT22;39101;53.478;6.158;2023-06-19T10:03:16;18.40;99.90
51500;DHT22;39101;53.478;6.158;2023-06-19T10:05:43;18.50;99.90
51500;DHT22;39101;53.478;6.158;2023-06-19T10:08:09;18.40;99.90
51500;DHT22;39101;53.478;6.158;2023-06-19T10:10:35;18.50;99.90
51500;DHT22;39101;53.478;6.158;2023-06-19T10:13:35;18.60;99.90
51500;DHT22;39101;53.478;6.158;2023-06-19T10:16:05;18.50;99.90
51500;DHT22;39101;53.478;6.158;2023-06-19T10:18:48;18.70;99.90
51500;DHT22;39101;53.478;6.158;2023-06-19T10:21:21;18.70;99.90
51500;DHT22;39101;53.478;6.158;2023-06-19T10:24:01;18.80;99.90
51500;DHT22;39101;53.478;6.158;2023-06-19T10:26:33;18.70;99.90
51500;DHT22;39101;53.478;6.158;2023-06-19T10:28:59;18.70;99.90
51500;DHT22;39101;53.478;6.158;2023-06-19T10:34:35;18.70;99.90
51500;DHT22;39101;53.478;6.158;2023-06-19T10:37:01;19.00;99.90
51500;DHT22;39101;53.478;6.158;2023-06-19T10:39:27;19.00;99.90
51500;DHT22;39101;53.478;6.158;2023-06-19T10:41:58;19.20;99.90
51500;DHT22;39101;53.478;6.158;2023-06-19T10:44:24;19.20;99.90
51500;DHT22;39101;53.478;6.158;2023-06-19T10:46:54;19.30;99.90
51500;DHT22;39101;53.478;6.158;2023-06-19T10:49:23;19.30;99.90
51500;DHT22;39101;53.478;6.158;2023-06-19T10:51:49;19.40;99.90
51500;DHT22;39101;53.478;6.158;2023-06-19T10:57:56;19.30;99.90
51500;DHT22;39101;53.478;6.158;2023-06-19T11:00:28;19.30;99.90
51500;DHT22;39101;53.478;6.158;2023-06-19T11:03:05;19.40;99.90
51500;DHT22;39101;53.478;6.158;2023-06-19T11:05:31;19.50;99.90
51500;DHT22;39101;53.478;6.158;2023-06-19T11:07:58;19.70;99.90
51500;DHT22;39101;53.478;6.158;2023-06-19T11:10:27;19.80;99.90
51500;DHT22;39101;53.478;6.158;2023-06-19T11:12:58;19.80;99.90
51500;DHT22;39101;53.478;6.158;2023-06-19T11:15:30;19.80;99.90
51500;DHT22;39101;53.478;6.158;2023-06-19T11:18:22;19.80;99.90
51500;DHT22;39101;53.478;6.158;2023-06-19T11:20:49;19.80;99.90
51500;DHT22;39101;53.478;6.158;2023-06-19T11:23:25;19.70;99.90
51500;DHT22;39101;53.478;6.158;2023-06-19T11:25:50;19.60;99.90
51500;DHT22;39101;53.478;6.158;2023-06-19T11:28:17;19.50;99.90
51500;DHT22;39101;53.478;6.158;2023-06-19T11:30:48;19.40;99.90
51500;DHT22;39101;53.478;6.158;2023-06-19T11:33:19;19.30;99.90
51500;DHT22;39101;53.478;6.158;2023-06-19T11:35:50;19.30;99.90
51500;DHT22;39101;53.478;6.158;2023-06-19T11:38:25;19.40;99.90
51500;DHT22;39101;53.478;6.158;2023-06-19T11:40:55;19.30;99.90
51500;DHT22;39101;53.478;6.158;2023-06-19T11:43:29;19.40;99.90
51500;DHT22;39101;53.478;6.158;2023-06-19T11:46:08;19.50;99.90
51500;DHT22;39101;53.478;6.158;2023-06-19T11:48:37;19.40;99.90
51500;DHT22;39101;53.478;6.158;2023-06-19T11:51:03;19.50;99.90
51500;DHT22;39101;53.478;6.158;2023-06-19T11:53:29;19.50;99.90
51500;DHT22;39101;53.478;6.158;2023-06-19T11:55:55;19.50;99.90
51500;DHT22;39101;53.478;6.158;2023-06-19T11:58:21;19.50;99.90
51500;DHT22;39101;53.478;6.158;2023-06-19T12:00:47;19.60;99.90
51500;DHT22;39101;53.478;6.158;2023-06-19T12:03:13;19.50;99.90
51500;DHT22;39101;53.478;6.158;2023-06-19T12:05:39;19.70;99.90
51500;DHT22;39101;53.478;6.158;2023-06-19T12:08:06;19.70;99.90
51500;DHT22;39101;53.478;6.158;2023-06-19T12:10:35;19.90;99.90
51500;DHT22;39101;53.478;6.158;2023-06-19T12:13:01;19.90;99.90
51500;DHT22;39101;53.478;6.158;2023-06-19T12:15:28;20.00;99.90
51500;DHT22;39101;53.478;6.158;2023-06-19T12:17:54;20.10;99.90
51500;DHT22;39101;53.478;6.158;2023-06-19T12:20:23;20.00;99.90
51500;DHT22;39101;53.478;6.158;2023-06-19T12:22:50;20.30;99.90
51500;DHT22;39101;53.478;6.158;2023-06-19T12:25:16;20.30;99.90
51500;DHT22;39101;53.478;6.158;2023-06-19T12:27:43;20.30;99.90
51500;DHT22;39101;53.478;6.158;2023-06-19T12:30:11;20.50;99.90
51500;DHT22;39101;53.478;6.158;2023-06-19T12:32:37;20.60;99.90
51500;DHT22;39101;53.478;6.158;2023-06-19T12:35:03;20.70;99.90
51500;DHT22;39101;53.478;6.158;2023-06-19T12:37:32;20.80;99.90
51500;DHT22;39101;53.478;6.158;2023-06-19T12:39:59;20.90;99.90
51500;DHT22;39101;53.478;6.158;2023-06-19T12:42:25;20.90;99.90
51500;DHT22;39101;53.478;6.158;2023-06-19T12:44:51;20.90;99.90
51500;DHT22;39101;53.478;6.158;2023-06-19T12:47:16;21.00;99.90
51500;DHT22;39101;53.478;6.158;2023-06-19T12:49:47;21.00;99.90
51500;DHT22;39101;53.478;6.158;2023-06-19T12:52:13;21.10;99.90
51500;DHT22;39101;53.478;6.158;2023-06-19T12:54:41;21.00;99.90
51500;DHT22;39101;53.478;6.158;2023-06-19T12:57:07;20.90;99.90
51500;DHT22;39101;53.478;6.158;2023-06-19T12:59:42;20.90;99.90
51500;DHT22;39101;53.478;6.158;2023-06-19T13:02:08;21.10;99.90
51500;DHT22;39101;53.478;6.158;2023-06-19T13:04:33;21.10;99.90
51500;DHT22;39101;53.478;6.158;2023-06-19T13:06:59;21.10;99.90
51500;DHT22;39101;53.478;6.158;2023-06-19T13:09:25;21.10;99.90
51500;DHT22;39101;53.478;6.158;2023-06-19T13:11:50;21.00;99.90
51500;DHT22;39101;53.478;6.158;2023-06-19T13:14:16;21.10;99.90
51500;DHT22;39101;53.478;6.158;2023-06-19T13:16:42;21.20;99.90
51500;DHT22;39101;53.478;6.158;2023-06-19T13:19:08;21.20;99.90
51500;DHT22;39101;53.478;6.158;2023-06-19T13:21:35;21.20;99.90
51500;DHT22;39101;53.478;6.158;2023-06-19T13:24:01;21.20;99.90
51500;DHT22;39101;53.478;6.158;2023-06-19T13:26:27;21.10;99.90
51500;DHT22;39101;53.478;6.158;2023-06-19T13:28:52;21.20;99.90
51500;DHT22;39101;53.478;6.158;2023-06-19T13:31:37;21.10;99.90
51500;DHT22;39101;53.478;6.158;2023-06-19T13:34:06;21.20;99.90
51500;DHT22;39101;53.478;6.158;2023-06-19T13:37:01;21.10;99.90
51500;DHT22;39101;53.478;6.158;2023-06-19T13:39:26;21.20;99.90
51500;DHT22;39101;53.478;6.158;2023-06-19T13:41:52;21.20;99.90
51500;DHT22;39101;53.478;6.158;2023-06-19T13:44:18;21.10;99.90
51500;DHT22;39101;53.478;6.158;2023-06-19T13:46:45;21.20;99.90
51500;DHT22;39101;53.478;6.158;2023-06-19T13:49:10;21.10;99.90
51500;DHT22;39101;53.478;6.158;2023-06-19T13:51:36;21.10;99.90
51500;DHT22;39101;53.478;6.158;2023-06-19T13:54:02;21.20;99.90
51500;DHT22;39101;53.478;6.158;2023-06-19T13:56:30;21.20;99.90
51500;DHT22;39101;53.478;6.158;2023-06-19T13:59:15;21.30;99.90
51500;DHT22;39101;53.478;6.158;2023-06-19T14:01:41;21.30;99.90
51500;DHT22;39101;53.478;6.158;2023-06-19T14:04:07;21.30;99.90
51500;DHT22;39101;53.478;6.158;2023-06-19T14:06:37;21.20;99.90
51500;DHT22;39101;53.478;6.158;2023-06-19T14:09:03;21.20;99.90
51500;DHT22;39101;53.478;6.158;2023-06-19T14:11:29;21.20;99.90
51500;DHT22;39101;53.478;6.158;2023-06-19T14:13:55;21.30;99.90
51500;DHT22;39101;53.478;6.158;2023-06-19T14:16:21;21.30;99.90
51500;DHT22;39101;53.478;6.158;2023-06-19T14:18:47;21.30;99.90
51500;DHT22;39101;53.478;6.158;2023-06-19T14:21:12;21.30;99.90
51500;DHT22;39101;53.478;6.158;2023-06-19T14:23:38;21.40;99.90
51500;DHT22;39101;53.478;6.158;2023-06-19T14:26:10;21.40;99.90
51500;DHT22;39101;53.478;6.158;2023-06-19T14:28:37;21.40;99.90
51500;DHT22;39101;53.478;6.158;2023-06-19T14:31:06;21.40;99.90
51500;DHT22;39101;53.478;6.158;2023-06-19T14:33:32;21.40;99.90
51500;DHT22;39101;53.478;6.158;2023-06-19T14:36:01;21.50;99.90
51500;DHT22;39101;53.478;6.158;2023-06-19T14:38:29;21.50;99.90
51500;DHT22;39101;53.478;6.158;2023-06-19T14:41:02;21.50;99.90
51500;DHT22;39101;53.478;6.158;2023-06-19T14:43:28;21.50;99.90
51500;DHT22;39101;53.478;6.158;2023-06-19T14:45:55;21.40;99.90
51500;DHT22;39101;53.478;6.158;2023-06-19T14:48:21;21.50;99.90
51500;DHT22;39101;53.478;6.158;2023-06-19T14:50:48;21.50;99.90
51500;DHT22;39101;53.478;6.158;2023-06-19T14:53:14;21.50;99.90
51500;DHT22;39101;53.478;6.158;2023-06-19T14:55:39;21.60;99.90
51500;DHT22;39101;53.478;6.158;2023-06-19T14:58:13;21.50;99.90
51500;DHT22;39101;53.478;6.158;2023-06-19T15:00:40;21.60;99.90
51500;DHT22;39101;53.478;6.158;2023-06-19T15:03:06;21.60;99.90
51500;DHT22;39101;53.478;6.158;2023-06-19T15:05:32;21.60;99.90
51500;DHT22;39101;53.478;6.158;2023-06-19T15:07:58;21.60;99.90
51500;DHT22;39101;53.478;6.158;2023-06-19T15:10:25;21.60;99.90
51500;DHT22;39101;53.478;6.158;2023-06-19T15:12:52;21.70;99.90
51500;DHT22;39101;53.478;6.158;2023-06-19T15:15:17;21.70;99.90
51500;DHT22;39101;53.478;6.158;2023-06-19T15:17:43;21.80;99.90
51500;DHT22;39101;53.478;6.158;2023-06-19T15:20:09;21.80;99.90
51500;DHT22;39101;53.478;6.158;2023-06-19T15:22:35;21.90;99.90
51500;DHT22;39101;53.478;6.158;2023-06-19T15:25:03;22.00;99.90
51500;DHT22;39101;53.478;6.158;2023-06-19T15:27:28;22.00;99.90
51500;DHT22;39101;53.478;6.158;2023-06-19T15:29:54;22.00;99.90
51500;DHT22;39101;53.478;6.158;2023-06-19T15:32:20;22.10;99.90
51500;DHT22;39101;53.478;6.158;2023-06-19T15:34:45;22.20;99.90
51500;DHT22;39101;53.478;6.158;2023-06-19T15:37:11;22.30;99.90
51500;DHT22;39101;53.478;6.158;2023-06-19T15:39:37;22.20;99.90
51500;DHT22;39101;53.478;6.158;2023-06-19T15:42:03;22.30;99.90
51500;DHT22;39101;53.478;6.158;2023-06-19T15:44:28;22.30;99.90
51500;DHT22;39101;53.478;6.158;2023-06-19T15:46:54;22.50;99.90
51500;DHT22;39101;53.478;6.158;2023-06-19T15:49:20;22.70;99.90
51500;DHT22;39101;53.478;6.158;2023-06-19T15:51:45;22.70;99.90
51500;DHT22;39101;53.478;6.158;2023-06-19T15:54:11;22.70;99.90
51500;DHT22;39101;53.478;6.158;2023-06-19T15:56:38;22.80;99.90